Hundvaag 1 weather for May 2006
Month no. 227
Obs.
Da.
Temp. Dew Point Precip. Wind
Speed
Wind gusts Cloud cover Press. Humidity Wind dir. Sunny OPT
01.05.2006 10,5   1,1 22,5   3 1028,7 64,0 157,5 1 57,5 %
02.05.2006 9,5   0,0 11,3   2 1026,0 69,0 157,5 1 60,0 %
03.05.2006 11,6   0,0 12,9   0 1032,4 63,0 135,0   57,5 %
04.05.2006 14,4   0,0 9,7   2 1043,6 58,0 135,0 1 67,5 %
05.05.2006 16,8   0,0 14,5   10 1047,0 40,0 135,0 1 87,5 %
06.05.2006 16,3   0,0 1,6   10 1050,7 40,0 67,5 1 95,0 %
07.05.2006 16,7   0,0 8,0   10 1050,3 44,0 67,5 1 90,0 %
08.05.2006 15,0   0,0 12,9   10 1049,0 44,0 67,5 1 87,5 %
09.05.2006 16,4   0,0 3,2   10 1044,9 54,0 22,5 1 95,0 %
10.05.2006 16,6   0,0 8,0   10 1042,2 70,0 22,5 1 90,0 %
11.05.2006 9,9   0,0 0,0   0 1037,5 77,0   1 62,5 %
12.05.2006 9,1   0,0 0,0   7 1033,4 74,0   1 80,0 %
13.05.2006 8,7   0,6 0,0   3 1032,1 78,0   1 70,0 %
14.05.2006 10,4   0,0 6,4   7 1014,8 72,0 22,5 1 80,0 %
15.05.2006 8,8   0,0 2,6   3 1037,1 73,0 22,5 1 70,0 %
16.05.2006 8,3   0,7 1,6   0 1031,7 76,0 0,0   62,5 %
17.05.2006 9,7   4,5 1,6   0 1032,4 86,0 22,5   60,0 %
18.05.2006 11,5   9,5 8,0   0 1023,6 84,0 157,5 1 52,5 %
19.05.2006 12,2   3,3 3,2   1 1015,1 75,0 157,5 1 65,0 %
20.05.2006 14,8   7,0 0,0   9 1010,0 85,0   1 85,0 %
21.05.2006 9,9   0,0 8,0   2 1011,1 84,0 337,5 1 62,5 %
22.05.2006 9,9   2,5 4,8   0 1010,0 78,0 67,5 1 60,0 %
23.05.2006 7,3   4,6 24,1   0 1014,4 84,0 67,5 1 42,5 %
24.05.2006 8,5   0,0 9,7   1 1005,0 77,0 157,5 1 60,0 %
25.05.2006 8,5   7,0 1,6   5 1022,6 82,0 180,0 1 70,0 %
26.05.2006 7,2   1,5 4,8   4 1029,0 83,0 270,0 1 67,5 %
27.05.2006 8,2   0,0 0,0   0 1031,4 82,0     62,5 %
28.05.2006 7,8   3,0 0,0   2 1023,6 86,0   1 65,0 %
29.05.2006 9,2   1,0 8,0   0 1024,3 84,0 337,5 1 57,5 %
30.05.2006 11,0   0,0 0,0   8 1025,3 85,0   1 85,0 %
31.05.2006 10,8   0,0 0,0   10 1031,0 79,0   1 90,0 %
Avrg/Sum 11,1   46,3 6,1   4,2 1029,4 71,9 120,3 27 70,9 %